IK5NLA Vaiano IT current weather conditions

sailwx.info

Wind from 125 at 3 knots gusting 5

Air temperature 25.6° C
Dewpoint 16.1° C

Last reported at 2014-Jul-23 14:46 UTC.
Time now 2014-Jul-23 16:03 UTC

Location: N 43°58' E 011°06'.
View on Google Maps.

See reports from other nearby stations

  
Tides and Currents Weather Stations Pressure Air Temp Water Temp Dewpoint Dewpoint Depression Visibility Wind Speed Wind Dir Waves Ship Positions
date/time (UTC)wind fromknots sea level pressurealtimeterstation pressurevisibilityair tempwater tempwave heightnotes
2014-Jul-23 14:46 125 3 gusting 5 25.6
2014-Jul-23 14:36 057 4 gusting 4 25.6
2014-Jul-23 14:26 083 0 gusting 1 25.0
2014-Jul-23 14:16 093 2 gusting 3 25.0
2014-Jul-23 14:06 136 3 gusting 4 25.0
2014-Jul-23 13:56 171 2 gusting 5 25.0
2014-Jul-23 13:46 107 3 gusting 3 25.0
2014-Jul-23 13:36 076 4 gusting 7 25.0
2014-Jul-23 13:26 065 6 gusting 6 25.0
2014-Jul-23 13:16 109 7 gusting 8 25.0
2014-Jul-23 13:06 048 6 gusting 6 25.0
2014-Jul-23 12:56 115 7 gusting 8 25.0
2014-Jul-23 12:46 087 5 gusting 5 24.4
2014-Jul-23 12:36 074 6 gusting 8 24.4
2014-Jul-23 12:26 094 7 gusting 7 24.4
2014-Jul-23 12:16 085 6 gusting 8 23.9
2014-Jul-23 12:06 063 3 gusting 5 23.9
2014-Jul-23 11:56 090 3 gusting 4 23.9
2014-Jul-23 11:46 095 6 gusting 7 23.3
2014-Jul-23 11:36 082 8 gusting 8 23.3
2014-Jul-23 11:26 115 4 gusting 5 23.3
2014-Jul-23 11:16 087 10 gusting 11 23.3
2014-Jul-23 11:06 034 5 gusting 7 22.8
2014-Jul-23 10:56 075 3 gusting 4 22.8
2014-Jul-23 10:46 102 4 gusting 6 22.8
2014-Jul-23 10:36 102 4 gusting 6 22.2
2014-Jul-23 10:26 094 5 gusting 6 22.2
2014-Jul-23 10:16 069 6 gusting 6 22.2
2014-Jul-23 10:06 069 6 gusting 7 22.8
2014-Jul-23 09:56 103 7 gusting 9 23.3
2014-Jul-23 09:46 067 13 gusting 13 23.3
2014-Jul-23 09:36 106 7 gusting 11 23.3
2014-Jul-23 09:26 092 6 gusting 6 22.8
2014-Jul-23 09:16 088 6 gusting 8 23.3
2014-Jul-23 09:06 090 8 gusting 13 23.3
2014-Jul-23 08:56 091 11 gusting 14 23.3
2014-Jul-23 08:46 098 4 gusting 4 22.8
2014-Jul-23 08:36 102 6 gusting 6 23.3
2014-Jul-23 08:26 092 9 gusting 9 23.3
2014-Jul-23 08:16 071 6 gusting 8 23.3
2014-Jul-23 08:06 085 8 gusting 8 22.8
2014-Jul-23 07:56 092 3 gusting 5 23.3
2014-Jul-23 07:46 064 6 gusting 6 22.8
2014-Jul-23 07:36 090 4 gusting 4 22.8
2014-Jul-23 07:26 110 4 gusting 4 23.3
2014-Jul-23 07:16 071 5 gusting 5 22.8
2014-Jul-23 07:06 096 5 gusting 6 23.3
2014-Jul-23 06:56 082 2 gusting 3 22.8
2014-Jul-23 06:46 117 3 gusting 3 22.2
2014-Jul-23 06:36 119 3 gusting 3 21.7
2014-Jul-23 06:26 080 1 gusting 4 21.7
2014-Jul-23 06:16 128 3 gusting 4 21.7
2014-Jul-23 06:06 117 5 gusting 5 21.7
2014-Jul-23 05:56 122 4 gusting 4 21.7
2014-Jul-23 05:46 117 1 gusting 1 21.1
2014-Jul-23 05:36 079 4 gusting 4 20.6
2014-Jul-23 05:26 089 3 gusting 3 20.0
2014-Jul-23 05:16 086 0 gusting 1 19.4
2014-Jul-23 05:06 075 1 gusting 1 19.4
2014-Jul-23 04:56 038 0 gusting 0 19.4
2014-Jul-23 04:46 057 0 gusting 0 19.4
2014-Jul-23 04:36 024 19.4
2014-Jul-23 04:26 023 19.4
2014-Jul-23 04:16 023 19.4
2014-Jul-23 04:06 355 0 gusting 1 19.4
2014-Jul-23 03:56 313 2 gusting 2 18.9
2014-Jul-23 03:46 258 2 gusting 2 18.9
2014-Jul-23 03:36 341 2 gusting 3 18.9
2014-Jul-23 03:26 308 2 gusting 2 18.9
2014-Jul-23 03:16 061 1 gusting 1 18.9
2014-Jul-23 03:06 349 1 gusting 2 18.9
2014-Jul-23 02:56 349 2 gusting 2 18.9
2014-Jul-23 02:46 331 2 gusting 2 18.9
2014-Jul-23 02:36 331 0 gusting 0 18.9
2014-Jul-23 02:26 331 2 gusting 2 18.9
2014-Jul-23 02:16 343 3 gusting 3 18.9
2014-Jul-23 02:06 333 0 gusting 0 18.9
2014-Jul-23 01:56 329 3 gusting 3 18.9
2014-Jul-23 01:46 315 2 gusting 2 18.9
2014-Jul-23 01:36 041 1 gusting 1 18.9
2014-Jul-23 01:26 041 1 gusting 2 18.9
2014-Jul-23 01:16 042 1 gusting 1 18.9
2014-Jul-23 01:06 042 0 gusting 0 19.4
2014-Jul-23 00:56 041 19.4
2014-Jul-23 00:46 042 2 gusting 2 20.0
2014-Jul-23 00:36 319 3 gusting 3 20.0
2014-Jul-23 00:26 323 2 gusting 2 20.0
2014-Jul-23 00:16 342 2 gusting 2 20.0
2014-Jul-23 00:06 339 2 gusting 3 20.0
2014-Jul-22 23:56 331 20.6
2014-Jul-22 23:46 360 4 gusting 4 20.6
2014-Jul-22 23:36 333 0 gusting 2 20.6
2014-Jul-22 23:26 074 0 gusting 1 20.6
2014-Jul-22 23:16 074 4 gusting 4 20.6
2014-Jul-22 23:06 065 20.6
2014-Jul-22 22:56 071 3 gusting 3 20.6
2014-Jul-22 22:46 160 0 gusting 3 20.6
2014-Jul-22 22:36 060 4 gusting 5 20.6
2014-Jul-22 22:26 026 1 gusting 3 20.6
2014-Jul-22 22:16 172 1 gusting 2 20.0
2014-Jul-22 22:06 005 2 gusting 3 19.4
2014-Jul-22 21:56 342 0 gusting 0 19.4
2014-Jul-22 21:46 341 19.4
2014-Jul-22 21:36 338 3 gusting 3 19.4
2014-Jul-22 21:26 344 3 gusting 3 19.4
2014-Jul-22 21:16 332 4 gusting 4 19.4
2014-Jul-22 21:06 311 1 gusting 2 18.9
2014-Jul-22 20:56 277 2 gusting 3 19.4
2014-Jul-22 20:46 292 1 gusting 2 19.4
2014-Jul-22 20:36 337 1 gusting 1 19.4
2014-Jul-22 20:26 333 0 gusting 1 19.4
2014-Jul-22 20:16 305 2 gusting 3 20.0
2014-Jul-22 20:06 321 1 gusting 2 20.0
2014-Jul-22 19:56 350 2 gusting 3 20.0
2014-Jul-22 19:46 348 3 gusting 3 20.0
2014-Jul-22 19:36 343 2 gusting 2 20.0
2014-Jul-22 19:26 338 2 gusting 2 20.0
2014-Jul-22 19:16 355 2 gusting 3 20.6
2014-Jul-22 19:06 005 2 gusting 3 20.6
2014-Jul-22 18:56 336 2 gusting 2 21.1
2014-Jul-22 18:46 355 2 gusting 2 21.1
2014-Jul-22 18:36 350 2 gusting 2 21.7
2014-Jul-22 18:26 005 2 gusting 2 21.7
2014-Jul-22 18:16 355 2 gusting 2 21.7
2014-Jul-22 18:06 005 2 gusting 2 21.7
2014-Jul-22 17:56 005 1 gusting 1 22.2
2014-Jul-22 17:46 005 1 gusting 1 22.2
2014-Jul-22 17:36 005 2 gusting 2 22.2
2014-Jul-22 17:26 045 1 gusting 1 22.8
2014-Jul-22 17:16 056 1 gusting 1 22.8
2014-Jul-22 17:06 046 0 gusting 1 23.3
2014-Jul-22 16:56 040 0 gusting 2 23.3
2014-Jul-22 16:46 037 4 gusting 4 23.3
2014-Jul-22 16:36 070 2 gusting 2 23.9
2014-Jul-22 16:26 074 2 gusting 2 23.3
2014-Jul-22 16:16 360 1 gusting 1 23.3
2014-Jul-22 16:06 034 2 gusting 2 23.3
2014-Jul-22 15:56 071 2 gusting 2 23.3
2014-Jul-22 15:46 061 1 gusting 1 23.9
2014-Jul-22 15:36 114 0 gusting 1 24.4
2014-Jul-22 15:26 036 2 gusting 2 23.3
2014-Jul-22 15:16 076 0 gusting 1 23.3
2014-Jul-22 15:06 080 6 gusting 6 23.9
2014-Jul-22 14:56 065 3 gusting 3 24.4
2014-Jul-22 14:46 076 3 gusting 3 23.9
2014-Jul-22 14:36 067 1 gusting 2 24.4
2014-Jul-22 14:26 098 2 gusting 2 23.9
2014-Jul-22 14:16 116 4 gusting 6 23.9
2014-Jul-22 14:06 140 2 gusting 3 23.9
2014-Jul-22 13:56 126 3 gusting 5 23.9
2014-Jul-22 13:46 092 1 gusting 1 23.3
2014-Jul-22 13:36 111 3 gusting 5 23.9
2014-Jul-22 13:26 071 4 gusting 5 23.3
2014-Jul-22 13:16 101 2 gusting 4 23.3
2014-Jul-22 13:06 095 5 gusting 5 23.3
2014-Jul-22 12:56 093 6 gusting 6 23.9
2014-Jul-22 12:46 073 2 gusting 2 23.3
2014-Jul-22 12:36 080 6 gusting 7 23.9
2014-Jul-22 12:26 182 3 gusting 3 23.3
2014-Jul-22 12:16 090 5 gusting 5 23.3
2014-Jul-22 12:06 091 6 gusting 6 23.3
2014-Jul-22 11:56 073 4 gusting 4 22.8
2014-Jul-22 11:46 134 2 gusting 3 22.8
2014-Jul-22 11:36 098 2 gusting 2 23.3
2014-Jul-22 11:26 083 3 gusting 3 23.9
2014-Jul-22 11:16 100 1 gusting 2 22.8
2014-Jul-22 11:06 126 4 gusting 7 23.3
2014-Jul-22 10:56 118 2 gusting 3 22.8
2014-Jul-22 10:46 082 6 gusting 6 22.8
2014-Jul-22 10:36 065 6 gusting 6 22.8
2014-Jul-22 10:26 024 5 gusting 6 22.8
2014-Jul-22 10:16 086 4 gusting 4 22.2
2014-Jul-22 10:06 103 5 gusting 6 21.7
2014-Jul-22 09:56 119 3 gusting 4 22.2
2014-Jul-22 09:46 083 6 gusting 6 21.7
2014-Jul-22 09:36 086 7 gusting 7 21.7
2014-Jul-22 09:26 094 4 gusting 6 21.1
2014-Jul-22 09:16 118 6 gusting 6 21.1
2014-Jul-22 09:06 084 6 gusting 6 21.1
2014-Jul-22 08:56 110 3 gusting 3 21.7
2014-Jul-22 08:46 064 4 gusting 5 21.1
2014-Jul-22 08:36 122 6 gusting 6 20.6
2014-Jul-22 08:26 090 4 gusting 4 20.6
2014-Jul-22 08:16 094 6 gusting 6 20.6
2014-Jul-22 08:06 092 2 gusting 4 20.0
2014-Jul-22 07:56 079 6 gusting 6 20.0
2014-Jul-22 07:46 074 3 gusting 4 19.4
2014-Jul-22 07:36 134 5 gusting 6 18.9
2014-Jul-22 07:26 068 4 gusting 4 18.9
2014-Jul-22 07:16 086 6 gusting 6 18.9
2014-Jul-22 07:06 080 3 gusting 3 18.9
2014-Jul-22 06:56 117 3 gusting 3 18.3
2014-Jul-22 06:46 082 4 gusting 6 18.3
2014-Jul-22 06:36 083 3 gusting 4 18.9
2014-Jul-22 06:26 339 5 gusting 5 17.8
2014-Jul-22 06:16 345 7 gusting 7 16.7
2014-Jul-22 06:06 027 6 gusting 6 16.7
2014-Jul-22 05:56 063 5 gusting 5 16.7
2014-Jul-22 05:46 329 3 gusting 3 16.1
2014-Jul-22 05:36 022 6 gusting 6 16.1
2014-Jul-22 05:26 067 4 gusting 4 16.1
2014-Jul-22 05:16 029 5 gusting 5 16.1
2014-Jul-22 05:06 032 5 gusting 5 16.1
2014-Jul-22 04:56 030 5 gusting 5 15.6
2014-Jul-22 04:46 018 3 gusting 4 15.6
2014-Jul-22 04:36 093 0 gusting 0 15.6
2014-Jul-22 04:26 341 4 gusting 5 16.1
2014-Jul-22 04:16 346 4 gusting 5 16.1
2014-Jul-22 04:06 355 4 gusting 6 16.1
2014-Jul-22 03:56 336 5 gusting 5 16.1
2014-Jul-22 03:46 338 6 gusting 6 16.1
2014-Jul-22 03:36 334 2 gusting 4 16.1
2014-Jul-22 03:26 340 5 gusting 6 15.6
2014-Jul-22 03:16 350 4 gusting 4 15.0
2014-Jul-22 03:06 053 2 gusting 3 15.0
2014-Jul-22 02:56 034 3 gusting 3 15.6
2014-Jul-22 02:46 005 2 gusting 4 15.6
2014-Jul-22 02:36 019 6 gusting 6 15.0
2014-Jul-22 02:26 065 5 gusting 6 15.6
2014-Jul-22 02:16 355 6 gusting 6 15.6
2014-Jul-22 02:06 005 3 gusting 3 15.6
2014-Jul-22 01:56 345 4 gusting 4 15.6
2014-Jul-22 01:46 347 2 gusting 3 15.6
2014-Jul-22 01:36 336 4 gusting 4 16.1
2014-Jul-22 01:26 329 3 gusting 5 15.6
2014-Jul-22 01:16 350 6 gusting 6 15.6
2014-Jul-22 01:06 355 4 gusting 6 15.6
2014-Jul-22 00:56 322 3 gusting 4 15.6
2014-Jul-22 00:46 344 5 gusting 5 15.6
2014-Jul-22 00:36 042 3 gusting 3 15.6
2014-Jul-22 00:26 355 4 gusting 4 16.1
2014-Jul-22 00:16 028 6 gusting 6 16.1
2014-Jul-22 00:06 360 4 gusting 4 16.7
2014-Jul-21 23:56 009 4 gusting 4 16.7
2014-Jul-21 23:46 336 2 gusting 3 16.7
2014-Jul-21 23:36 005 3 gusting 4 16.7
2014-Jul-21 23:26 350 3 gusting 5 16.7
2014-Jul-21 23:16 025 3 gusting 3 16.7
2014-Jul-21 23:06 355 4 gusting 4 16.7
2014-Jul-21 22:56 340 3 gusting 3 16.7
2014-Jul-21 22:46 321 3 gusting 4 16.7
2014-Jul-21 22:36 022 2 gusting 4 16.7
2014-Jul-21 22:26 342 1 gusting 1 16.7
2014-Jul-21 22:16 346 2 gusting 2 16.7
2014-Jul-21 22:06 355 3 gusting 3 16.7
2014-Jul-21 21:56 337 4 gusting 4 16.7
2014-Jul-21 21:46 355 2 gusting 2 16.7
2014-Jul-21 21:36 360 2 gusting 2 16.7
2014-Jul-21 21:26 244 1 gusting 1 16.7
2014-Jul-21 21:16 244 0 gusting 1 16.7
2014-Jul-21 21:06 244 0 gusting 0 16.7
2014-Jul-21 20:56 244 1 gusting 1 16.7
2014-Jul-21 20:46 243 17.2
2014-Jul-21 20:36 243 17.2
2014-Jul-21 20:26 203 0 gusting 0 17.2
2014-Jul-21 20:16 288 17.2
2014-Jul-21 20:06 229 1 gusting 1 17.2
2014-Jul-21 19:56 223 2 gusting 3 17.8
2014-Jul-21 19:46 240 2 gusting 4 17.8
2014-Jul-21 19:36 198 3 gusting 3 17.8
2014-Jul-21 19:26 263 2 gusting 3 17.8
2014-Jul-21 19:16 250 3 gusting 4 17.8
2014-Jul-21 19:06 234 5 gusting 5 17.8
2014-Jul-21 18:56 255 3 gusting 3 17.8
2014-Jul-21 18:46 242 4 gusting 4 17.8
2014-Jul-21 18:36 209 7 gusting 8 17.8
2014-Jul-21 18:26 210 5 gusting 5 17.8
2014-Jul-21 18:16 211 10 gusting 10 18.3
2014-Jul-21 18:06 232 6 gusting 6 18.3
2014-Jul-21 18:03 215 6 gusting 6 18.3